Time;durP1;ratioP1;P1;durP2;ratioP2;P2;SDS_P1;SDS_P2;PMS_P1;PMS_P2;Temp;Humidity;BMP_temperature;BMP_pressure;BME280_temperature;BME280_humidity;BME280_pressure;Samples;Min_cycle;Max_cycle;Signal;HPM_P1;HPM_P2
2023/10/15 00:01:47;;;;;;;19.08;18.17;;;;;;;-141.02;83.85;42832.09;5094185;28;20790;-66
2023/10/15 00:04:22;;;;;;;18.98;18.08;;;;;;;-141.02;84.49;42832.09;5094133;28;20220;-65
2023/10/15 00:06:50;;;;;;;38.85;36.85;;;;;;;-141.02;85.29;42851.28;5094225;28;20574;-68
2023/10/15 00:13:16;;;;;;;43.08;40.78;;;;;;;-141.02;86.33;42824.41;5094154;28;20189;-67
2023/10/15 00:19:10;;;;;;;19.65;18.75;;;;;;;-141.02;85.69;42832.09;5093987;28;20274;-66
2023/10/15 00:25:12;;;;;;;18.10;17.30;;;;;;;-141.02;87.74;42774.50;5093755;28;20201;-67
2023/10/15 00:28:11;;;;;;;36.78;34.88;;;;;;;-141.02;88.44;42774.50;5094046;28;20190;-66
2023/10/15 00:31:28;;;;;;;40.28;38.20;;;;;;;-141.02;87.33;42786.03;5093987;28;20198;-67
2023/10/15 00:33:55;;;;;;;41.95;39.75;;;;;;;-141.02;86.05;42778.34;5088964;28;20197;-67
2023/10/15 00:36:23;;;;;;;40.05;37.95;;;;;;;-141.02;86.61;42784.09;5093829;28;20208;-67
2023/10/15 00:38:50;;;;;;;40.58;38.47;;;;;;;-141.02;86.58;42807.13;5093576;28;20607;-67
2023/10/15 00:41:18;;;;;;;18.30;17.40;;;;;;;-141.02;86.80;42747.63;5093453;28;20190;-67
2023/10/15 00:43:52;;;;;;;18.40;17.50;;;;;;;-141.02;86.96;42795.63;5093626;28;20198;-67
2023/10/15 00:46:20;;;;;;;18.40;17.50;;;;;;;-141.02;87.44;42789.88;5093686;28;20198;-67
2023/10/15 00:48:48;;;;;;;36.97;35.08;;;;;;;-141.02;88.31;42755.31;5093270;28;20579;-58
2023/10/15 00:51:20;;;;;;;38.72;36.72;;;;;;;-141.02;89.51;42759.16;5093274;28;20229;-65
2023/10/15 00:53:54;;;;;;;40.20;38.10;;;;;;;-141.02;92.45;42724.59;5093022;28;20197;-67
2023/10/15 00:56:23;;;;;;;39.17;37.17;;;;;;;-141.02;94.17;42651.66;5093477;28;20191;-64
2023/10/15 00:59:13;;;;;;;37.22;35.33;;;;;;;-141.02;94.42;42548.00;5092952;28;20251;-66
2023/10/15 01:01:48;;;;;;;17.42;16.63;;;;;;;-141.02;94.84;42509.59;5093119;28;20280;-64
2023/10/15 01:04:25;;;;;;;17.75;16.95;;;;;;;-141.02;94.96;42436.66;5093377;28;20225;-61
2023/10/15 01:06:55;;;;;;;17.58;16.77;;;;;;;-141.02;95.53;42394.41;5093300;28;20240;-65
2023/10/15 01:09:28;;;;;;;32.45;30.88;;;;;;;-141.02;95.65;42363.72;5093413;28;20569;-67
2023/10/15 01:11:57;;;;;;;36.20;34.40;;;;;;;-141.02;96.03;42344.53;5093208;28;20194;-61
2023/10/15 01:14:31;;;;;;;37.80;35.90;;;;;;;-141.02;96.35;42302.28;5093131;28;20198;-64
2023/10/15 01:16:59;;;;;;;37.63;35.72;;;;;;;-141.02;97.30;42290.78;5092810;28;20186;-64
2023/10/15 01:19:32;;;;;;;37.92;36.03;;;;;;;-141.02;98.21;42233.19;5092650;28;20232;-62
2023/10/15 01:22:02;;;;;;;36.78;34.97;;;;;;;-141.02;98.71;42156.41;5093041;28;20272;-62
2023/10/15 01:24:32;;;;;;;17.02;16.33;;;;;;;-141.02;99.99;42098.84;5092643;28;20659;-64
2023/10/15 01:27:08;;;;;;;16.35;15.65;;;;;;;-141.02;99.47;42054.69;5092913;28;20186;-60
2023/10/15 01:29:36;;;;;;;16.80;16.10;;;;;;;-141.02;99.47;42002.88;5092893;28;20636;-62
2023/10/15 01:32:08;;;;;;;32.30;30.80;;;;;;;-141.02;99.93;41968.31;5092541;28;20201;-60
2023/10/15 01:34:40;;;;;;;33.78;32.17;;;;;;;-141.02;100.00;41964.47;5092546;28;20190;-66
2023/10/15 01:40:37;;;;;;;35.10;33.40;;;;;;;-141.02;100.00;41889.63;5092411;28;20209;-64
2023/10/15 01:43:50;;;;;;;33.95;32.35;;;;;;;-141.02;100.00;41809.03;5092706;28;20181;-62
2023/10/15 01:47:12;;;;;;;16.23;15.52;;;;;;;-141.02;100.00;41730.34;5092505;28;20200;-63
2023/10/15 01:50:33;;;;;;;15.98;15.27;;;;;;;-141.02;100.00;41699.63;5092213;28;20718;-64
2023/10/15 01:53:05;;;;;;;33.97;32.38;;;;;;;-141.02;100.00;41668.94;5092550;28;20193;-65
2023/10/15 01:59:43;;;;;;;33.83;32.22;;;;;;;-141.02;100.00;41584.50;5092053;28;20607;-66
2023/10/15 02:02:13;;;;;;;32.38;30.88;;;;;;;-141.02;100.00;41572.97;5092170;28;20182;-66
2023/10/15 02:04:45;;;;;;;32.20;30.70;;;;;;;-141.02;100.00;41586.41;5092332;28;20185;-66
2023/10/15 02:07:16;;;;;;;15.25;14.65;;;;;;;-141.02;100.00;41572.97;5091965;28;20191;-66
2023/10/15 02:10:05;;;;;;;15.40;14.80;;;;;;;-141.02;100.00;41572.97;5092037;28;20683;-65
2023/10/15 02:12:35;;;;;;;15.43;14.82;;;;;;;-141.02;100.00;41590.25;5092380;28;20185;-65
2023/10/15 02:15:14;;;;;;;32.88;31.35;;;;;;;-141.02;100.00;41578.75;5091981;28;20209;-66
2023/10/15 02:17:52;;;;;;;33.55;31.95;;;;;;;-141.02;100.00;41576.81;5092513;28;20197;-67
2023/10/15 02:20:41;;;;;;;32.55;31.05;;;;;;;-141.02;100.00;41553.78;5092158;28;20225;-66
2023/10/15 02:23:08;;;;;;;34.58;32.97;;;;;;;-141.02;100.00;41553.78;5091948;28;20640;-66
2023/10/15 02:26:30;;;;;;;29.20;27.90;;;;;;;-141.02;100.00;41542.28;5091841;28;20671;-66
2023/10/15 02:32:21;;;;;;;15.25;14.65;;;;;;;-141.02;100.00;41515.41;5050432;28;20195;-67
2023/10/15 02:34:57;;;;;;;15.05;14.45;;;;;;;-141.02;100.00;41546.13;5049822;28;20650;-67
2023/10/15 02:37:41;;;;;;;31.45;30.05;;;;;;;-141.02;100.00;41507.72;5010230;28;20699;-65
2023/10/15 02:40:16;;;;;;;29.25;27.95;;;;;;;-141.02;100.00;41511.56;5009873;28;20232;-65
2023/10/15 02:46:01;;;;;;;33.97;32.38;;;;;;;-141.02;100.00;41523.09;4990339;28;20280;-65
2023/10/15 02:48:32;;;;;;;33.88;32.35;;;;;;;-141.02;100.00;41477.03;4990304;28;20205;-66
2023/10/15 02:51:00;;;;;;;15.43;14.82;;;;;;;-141.02;100.00;41461.69;4989768;28;20781;-67
2023/10/15 02:53:33;;;;;;;15.10;14.50;;;;;;;-141.02;100.00;41471.28;4990352;28;20233;-66
2023/10/15 02:56:10;;;;;;;15.40;14.80;;;;;;;-141.02;100.00;41440.56;4990356;28;20205;-67
2023/10/15 02:58:37;;;;;;;24.63;23.58;;;;;;;-141.02;100.00;41430.97;4990388;28;20706;-67
2023/10/15 03:01:17;;;;;;;31.52;30.13;;;;;;;-141.02;100.00;41400.28;4990063;28;20237;-67
2023/10/15 03:03:52;;;;;;;14.70;14.20;;;;;;;-141.02;100.00;41411.78;4990202;28;20193;-67
2023/10/15 03:06:24;;;;;;;14.35;13.85;;;;;;;-141.02;100.00;41407.94;4990206;28;20669;-64
2023/10/15 03:08:52;;;;;;;14.20;13.70;;;;;;;-141.02;100.00;41358.06;4990317;28;20202;-66
2023/10/15 03:11:21;;;;;;;14.30;13.80;;;;;;;-141.02;100.00;41342.69;4990125;28;20572;-67
2023/10/15 03:13:53;;;;;;;14.30;13.80;;;;;;;-141.02;100.00;41348.47;4990035;28;20278;-63
2023/10/15 03:16:24;;;;;;;14.40;13.90;;;;;;;-141.02;100.00;41354.22;5038308;28;20201;-67
2023/10/15 03:18:52;;;;;;;14.20;13.70;;;;;;;-141.02;100.00;41338.88;5094207;28;20190;-67
2023/10/15 03:21:25;;;;;;;13.40;13.00;;;;;;;-141.02;100.00;41312.00;5095363;28;20685;-66
2023/10/15 03:23:56;;;;;;;13.95;13.45;;;;;;;-141.02;100.00;41269.78;5095537;28;20763;-67
2023/10/15 03:26:24;;;;;;;14.25;13.75;;;;;;;-141.02;100.00;41250.59;5094955;28;20559;-66
2023/10/15 03:28:52;;;;;;;14.40;13.90;;;;;;;-141.02;100.00;41181.53;5095202;28;20251;-67
2023/10/15 03:31:25;;;;;;;13.80;13.30;;;;;;;-141.02;100.00;41162.34;5095073;28;20194;-64
2023/10/15 03:34:14;;;;;;;13.38;12.98;;;;;;;-141.02;100.00;41077.91;5095038;28;20656;-66
2023/10/15 03:36:47;;;;;;;13.43;13.02;;;;;;;-141.02;100.00;40962.78;5095347;28;20216;-67
2023/10/15 03:42:17;;;;;;;13.32;12.93;;;;;;;-141.02;100.00;40886.03;5094841;28;20204;-67
2023/10/15 03:44:49;;;;;;;13.35;12.95;;;;;;;-141.02;100.00;40813.13;5094918;28;20186;-67
2023/10/15 03:47:24;;;;;;;12.82;12.43;;;;;;;-141.02;100.00;40801.63;5094846;28;20225;-67
2023/10/15 03:49:52;;;;;;;13.63;13.23;;;;;;;-141.02;100.00;40803.53;5094439;28;20292;-67
2023/10/15 03:52:20;;;;;;;12.85;12.45;;;;;;;-141.02;100.00;40786.28;5094280;28;20644;-66
2023/10/15 03:54:50;;;;;;;12.70;12.30;;;;;;;-141.02;100.00;40728.72;5094825;28;20197;-67
2023/10/15 03:57:23;;;;;;;12.88;12.48;;;;;;;-141.02;100.00;40726.78;5094653;28;20194;-67
2023/10/15 03:59:52;;;;;;;12.90;12.50;;;;;;;-141.02;100.00;40721.03;5094226;28;20229;-67
2023/10/15 04:02:38;;;;;;;13.00;12.60;;;;;;;-141.02;100.00;40724.88;5094271;28;20216;-66
2023/10/15 04:05:11;;;;;;;12.35;11.95;;;;;;;-141.02;100.00;40682.66;5094160;28;20280;-66
2023/10/15 04:07:46;;;;;;;12.68;12.27;;;;;;;-141.02;100.00;40724.88;5094178;28;20548;-65
2023/10/15 04:10:23;;;;;;;12.63;12.23;;;;;;;-141.02;100.00;40713.38;5094440;28;20185;-66
2023/10/15 04:12:50;;;;;;;12.82;12.43;;;;;;;-141.02;100.00;40728.72;5094084;28;20566;-65
2023/10/15 04:15:17;;;;;;;12.15;11.75;;;;;;;-141.02;100.00;40709.53;5094312;28;20243;-67
2023/10/15 04:17:48;;;;;;;12.55;12.15;;;;;;;-141.02;100.00;40675.00;5094219;28;20318;-66
2023/10/15 04:20:23;;;;;;;12.70;12.30;;;;;;;-141.02;100.00;40690.34;5093780;28;20714;-67
2023/10/15 04:22:53;;;;;;;12.63;12.23;;;;;;;-141.02;100.00;40703.78;5093823;28;20574;-67
2023/10/15 04:25:25;;;;;;;12.60;12.20;;;;;;;-141.02;100.00;40698.00;5094111;28;20244;-66
2023/10/15 04:27:53;;;;;;;12.40;12.00;;;;;;;-141.02;100.00;40724.88;5094126;28;20186;-66
2023/10/15 04:30:20;;;;;;;12.30;11.90;;;;;;;-141.02;100.00;40736.38;5093543;28;20201;-64
2023/10/15 04:32:47;;;;;;;12.40;12.00;;;;;;;-141.02;100.00;40778.59;5094384;28;20288;-65
2023/10/15 04:35:18;;;;;;;12.00;11.60;;;;;;;-141.02;100.00;40774.75;5093567;28;20664;-66
2023/10/15 04:37:47;;;;;;;11.75;11.35;;;;;;;-141.02;100.00;40840.00;5093487;28;20610;-66
2023/10/15 04:40:16;;;;;;;11.63;11.23;;;;;;;-141.02;100.00;40832.31;5093954;28;20225;-66
2023/10/15 04:42:48;;;;;;;11.30;11.00;;;;;;;-141.02;100.00;40843.81;5093356;28;20289;-65
2023/10/15 04:45:23;;;;;;;11.63;11.23;;;;;;;-141.02;100.00;40886.03;5093520;28;20197;-60
2023/10/15 04:47:53;;;;;;;11.48;11.18;;;;;;;-141.02;100.00;40897.56;5093632;28;20194;-62
2023/10/15 04:50:21;;;;;;;11.75;11.35;;;;;;;-141.02;100.00;40876.44;5093686;28;20277;-62
2023/10/15 04:52:48;;;;;;;11.60;11.20;;;;;;;-141.02;100.00;40897.56;5093089;28;20734;-63
2023/10/15 04:55:17;;;;;;;11.40;11.10;;;;;;;-141.02;100.00;40928.25;5093530;28;20276;-67
2023/10/15 04:57:45;;;;;;;11.70;11.30;;;;;;;-141.02;100.00;40976.22;5093503;28;20201;-64
2023/10/15 05:00:15;;;;;;;11.70;11.30;;;;;;;-141.02;100.00;40968.53;5093442;28;20243;-66
2023/10/15 05:02:42;;;;;;;11.68;11.27;;;;;;;-141.02;100.00;41029.94;5093682;28;20186;-58
2023/10/15 05:05:11;;;;;;;11.88;11.48;;;;;;;-141.02;100.00;41031.84;5093032;28;20671;-66
2023/10/15 05:07:39;;;;;;;12.00;11.60;;;;;;;-141.02;100.00;41068.31;5093026;28;20658;-63
2023/10/15 05:10:07;;;;;;;11.43;11.13;;;;;;;-141.02;100.00;41114.38;5093231;28;20264;-64
2023/10/15 05:12:34;;;;;;;12.02;11.63;;;;;;;-141.02;100.00;41166.16;5092893;28;20341;-62
2023/10/15 05:15:01;;;;;;;12.30;11.90;;;;;;;-141.02;100.00;41177.69;5093142;28;20225;-65
2023/10/15 05:17:31;;;;;;;12.52;12.13;;;;;;;-141.02;100.00;41214.13;5092794;28;20284;-62
2023/10/15 05:19:58;;;;;;;12.68;12.27;;;;;;;-141.02;100.00;41269.78;5092641;28;20317;-63
2023/10/15 05:22:25;;;;;;;12.40;12.00;;;;;;;-141.02;100.00;41300.50;5092700;28;20189;-63
2023/10/15 05:24:54;;;;;;;12.80;12.40;;;;;;;-141.02;100.00;41292.81;5092672;28;20667;-65
2023/10/15 05:27:21;;;;;;;13.20;12.70;;;;;;;-141.02;100.00;41327.34;5092641;28;20618;-62
2023/10/15 05:29:48;;;;;;;13.48;12.98;;;;;;;-141.02;100.00;41365.72;5092893;28;20289;-64
2023/10/15 05:32:15;;;;;;;13.50;13.00;;;;;;;-141.02;100.00;41365.72;5092846;28;20277;-61
2023/10/15 05:34:42;;;;;;;13.50;13.00;;;;;;;-141.02;100.00;41411.78;5092771;28;20198;-61
2023/10/15 05:37:09;;;;;;;13.75;13.25;;;;;;;-141.02;100.00;41415.63;5093096;28;20201;-65
2023/10/15 05:39:37;;;;;;;14.25;13.75;;;;;;;-141.02;100.00;41473.19;5092503;28;20258;-65
2023/10/15 05:42:07;;;;;;;14.13;13.63;;;;;;;-141.02;100.00;41457.84;5092153;28;20199;-60
2023/10/15 05:44:35;;;;;;;14.98;14.38;;;;;;;-141.02;100.00;41553.78;5092339;28;20232;-63
2023/10/15 05:47:02;;;;;;;14.95;14.35;;;;;;;-141.02;100.00;41601.75;5092345;28;20199;-66
2023/10/15 05:49:29;;;;;;;15.35;14.75;;;;;;;-141.02;98.69;41580.66;5092605;28;20205;-63
2023/10/15 05:51:56;;;;;;;15.75;15.05;;;;;;;-141.02;97.50;41607.53;5092164;28;20749;-61
2023/10/15 05:54:23;;;;;;;15.70;15.00;;;;;;;-141.02;96.25;41630.56;5092272;28;20280;-65
2023/10/15 05:56:50;;;;;;;16.00;15.30;;;;;;;-141.02;95.58;41665.09;5092486;28;20575;-64
2023/10/15 05:59:18;;;;;;;16.10;15.40;;;;;;;-141.02;93.62;41716.91;5092524;28;20247;-64
2023/10/15 06:01:45;;;;;;;16.08;15.38;;;;;;;-141.02;93.79;41699.63;5092300;28;20633;-62
2023/10/15 06:04:13;;;;;;;15.98;15.27;;;;;;;-141.02;92.78;41688.13;5092103;28;20190;-66
2023/10/15 06:06:39;;;;;;;16.15;15.45;;;;;;;-141.02;92.96;41718.81;5092127;28;20200;-61
2023/10/15 06:09:06;;;;;;;16.02;15.32;;;;;;;-141.02;92.65;41724.59;5092378;28;20621;-67
2023/10/15 06:11:34;;;;;;;15.90;15.20;;;;;;;-141.02;92.55;41732.25;5092567;28;20281;-65
2023/10/15 06:14:01;;;;;;;16.42;15.73;;;;;;;-141.02;90.98;41759.13;5092305;28;20200;-66
2023/10/15 06:16:30;;;;;;;16.23;15.52;;;;;;;-141.02;91.27;41772.56;5092257;28;20189;-60
2023/10/15 06:18:58;;;;;;;16.30;15.60;;;;;;;-141.02;90.11;41810.94;5092283;28;20259;-63
2023/10/15 06:21:25;;;;;;;16.40;15.70;;;;;;;-141.02;89.15;41837.81;5091917;28;20221;-63
2023/10/15 06:23:52;;;;;;;16.52;15.82;;;;;;;-141.02;89.79;41772.56;5091932;28;20292;-66
2023/10/15 06:26:19;;;;;;;16.35;15.65;;;;;;;-141.02;87.64;41855.09;5091809;28;20663;-64
2023/10/15 06:28:47;;;;;;;16.45;15.75;;;;;;;-141.02;88.24;41857.00;5091876;28;20201;-61
2023/10/15 06:31:14;;;;;;;16.73;16.02;;;;;;;-141.02;87.63;41916.50;5092147;28;20615;-63
2023/10/15 06:33:42;;;;;;;16.60;15.90;;;;;;;-141.02;87.10;41885.78;5092142;28;20194;-64
2023/10/15 06:36:09;;;;;;;16.83;16.13;;;;;;;-141.02;86.80;41903.06;5092120;28;20202;-66
2023/10/15 06:38:36;;;;;;;16.95;16.15;;;;;;;-141.02;87.69;41889.63;5091728;28;20717;-66
2023/10/15 06:41:04;;;;;;;16.83;16.13;;;;;;;-141.02;86.40;41910.75;5092023;28;20229;-63
2023/10/15 06:43:31;;;;;;;16.90;16.20;;;;;;;-141.02;86.40;41922.25;5091779;28;20194;-65
2023/10/15 06:46:06;;;;;;;17.10;16.30;;;;;;;-141.02;85.12;41926.09;5091721;28;20743;-61
2023/10/15 06:48:33;;;;;;;17.38;16.58;;;;;;;-141.02;84.53;41918.41;5091988;28;20193;-64
2023/10/15 06:51:04;;;;;;;16.67;15.98;;;;;;;-141.02;83.81;41906.91;5091498;28;20715;-64
2023/10/15 06:53:31;;;;;;;17.40;16.60;;;;;;;-141.02;82.77;41972.16;5095386;28;20190;-67
2023/10/15 06:55:58;;;;;;;17.15;16.35;;;;;;;-141.02;83.35;41962.56;5095509;28;20194;-66
2023/10/15 06:58:26;;;;;;;17.25;16.45;;;;;;;-141.02;83.33;41956.81;5095709;28;20289;-67
2023/10/15 07:00:57;;;;;;;17.20;16.40;;;;;;;-141.02;83.80;41956.81;5095393;28;20225;-59
2023/10/15 07:03:24;;;;;;;16.67;15.98;;;;;;;-141.02;82.69;41960.66;5095818;28;20186;-66
2023/10/15 07:05:51;;;;;;;16.88;16.17;;;;;;;-141.02;82.20;41979.84;5095267;28;20573;-66
2023/10/15 07:08:20;;;;;;;17.02;16.33;;;;;;;-141.02;81.67;41995.19;5095567;28;20251;-66
2023/10/15 07:10:49;;;;;;;16.75;16.05;;;;;;;-141.02;81.12;41993.28;5095513;28;20198;-65
2023/10/15 07:13:17;;;;;;;16.92;16.20;;;;;;;-141.02;80.10;41997.13;5095287;28;20194;-58
2023/10/15 07:15:45;;;;;;;16.90;16.20;;;;;;;-141.02;79.49;41987.50;5095497;28;20198;-58
2023/10/15 07:18:12;;;;;;;16.95;16.25;;;;;;;-141.02;78.88;42018.22;5095003;28;20691;-63
2023/10/15 07:20:39;;;;;;;16.85;16.15;;;;;;;-141.02;78.68;42056.59;5095050;28;20731;-64
2023/10/15 07:23:07;;;;;;;16.92;16.23;;;;;;;-141.02;77.64;42081.56;5094965;28;20237;-64
2023/10/15 07:25:35;;;;;;;16.83;16.10;;;;;;;-141.02;76.96;42079.63;5095262;28;20285;-66
2023/10/15 07:28:04;;;;;;;17.20;16.40;;;;;;;-141.02;74.99;42129.53;5095082;28;20663;-66
2023/10/15 07:30:33;;;;;;;17.05;16.25;;;;;;;-141.02;73.57;42215.91;5094878;28;20672;-67
2023/10/15 07:33:00;;;;;;;17.17;16.38;;;;;;;-141.02;72.31;42231.28;5094843;28;20198;-68
2023/10/15 07:35:29;;;;;;;17.13;16.33;;;;;;;-141.02;71.90;42279.25;5094727;28;20284;-60
2023/10/15 07:37:56;;;;;;;17.27;16.48;;;;;;;-141.02;71.34;42327.25;5094986;28;20285;-66
2023/10/15 07:40:26;;;;;;;17.30;16.50;;;;;;;-141.02;69.70;42363.72;5094565;28;20198;-60
2023/10/15 07:42:58;;;;;;;17.13;16.33;;;;;;;-141.02;70.44;42359.88;5094958;28;20205;-66
2023/10/15 07:45:28;;;;;;;17.30;16.50;;;;;;;-141.02;69.56;42371.38;5094649;28;20190;-64
2023/10/15 07:47:55;;;;;;;16.95;16.20;;;;;;;-141.02;68.36;42390.59;5094429;28;20197;-68
2023/10/15 07:50:23;;;;;;;17.17;16.38;;;;;;;-141.02;67.34;42402.09;5094517;28;20194;-66
2023/10/15 07:52:50;;;;;;;17.48;16.67;;;;;;;-141.02;66.63;42415.53;5094241;28;20229;-67
2023/10/15 07:55:17;;;;;;;17.65;16.85;;;;;;;-141.02;65.95;42467.38;5094297;28;20643;-63
2023/10/15 07:57:46;;;;;;;17.08;16.27;;;;;;;-141.02;65.40;42494.25;5094327;28;20241;-67
2023/10/15 08:00:16;;;;;;;17.50;16.70;;;;;;;-141.02;63.98;42505.75;5094270;28;20250;-67
2023/10/15 08:02:45;;;;;;;17.15;16.35;;;;;;;-141.02;63.81;42571.03;5094316;28;20276;-67
2023/10/15 08:05:12;;;;;;;17.38;16.58;;;;;;;-141.02;62.80;42597.91;5093515;28;20198;-67
2023/10/15 08:07:41;;;;;;;17.00;16.30;;;;;;;-141.02;62.16;42632.44;5094128;28;20285;-67
2023/10/15 08:10:09;;;;;;;17.05;16.25;;;;;;;-141.02;63.92;42686.19;5094058;28;20202;-68
2023/10/15 08:12:36;;;;;;;17.20;16.40;;;;;;;-141.02;62.95;42676.59;5094550;28;20196;-67
2023/10/15 08:15:04;;;;;;;17.15;16.35;;;;;;;-141.02;63.81;42697.72;5093927;28;20196;-66
2023/10/15 08:17:32;;;;;;;17.33;16.52;;;;;;;-141.02;63.57;42720.75;5094124;28;20229;-67
2023/10/15 08:19:59;;;;;;;17.33;16.52;;;;;;;-141.02;63.67;42728.44;5093796;28;20289;-68
2023/10/15 08:22:28;;;;;;;17.25;16.55;;;;;;;-141.02;64.54;42764.91;5094036;28;20229;-68
2023/10/15 08:24:55;;;;;;;17.38;16.58;;;;;;;-141.02;63.75;42705.41;5094144;28;20276;-67
2023/10/15 08:27:22;;;;;;;17.33;16.52;;;;;;;-141.02;62.26;42713.06;5094058;28;20236;-67
2023/10/15 08:29:49;;;;;;;17.00;16.30;;;;;;;-141.02;63.06;42770.66;5093578;28;20735;-68
2023/10/15 08:32:17;;;;;;;17.05;16.35;;;;;;;-141.02;62.23;42764.91;5093567;28;20190;-67
2023/10/15 08:34:46;;;;;;;16.98;16.27;;;;;;;-141.02;61.14;42747.63;5093602;28;20682;-66
2023/10/15 08:37:14;;;;;;;16.88;16.17;;;;;;;-141.02;61.05;42784.09;5093919;28;20289;-68
2023/10/15 08:39:41;;;;;;;16.75;16.05;;;;;;;-141.02;60.77;42807.13;5093433;28;20690;-68
2023/10/15 08:42:13;;;;;;;17.38;16.58;;;;;;;-141.02;61.43;42801.38;5093410;28;20320;-67
2023/10/15 08:44:40;;;;;;;16.77;16.08;;;;;;;-141.02;60.69;42789.88;5093748;28;20189;-67
2023/10/15 08:47:10;;;;;;;16.90;16.20;;;;;;;-141.02;59.40;42774.50;5093704;28;20198;-69
2023/10/15 08:49:44;;;;;;;16.70;16.00;;;;;;;-141.02;59.31;42797.53;5093314;28;20253;-68
2023/10/15 08:52:15;;;;;;;16.60;15.90;;;;;;;-141.02;60.30;42874.34;5093305;28;20267;-67
2023/10/15 08:54:44;;;;;;;16.52;15.82;;;;;;;-141.02;59.38;42849.38;5093258;28;20284;-68
2023/10/15 08:57:12;;;;;;;16.67;15.98;;;;;;;-141.02;59.02;42870.50;5093595;28;20225;-68
2023/10/15 08:59:39;;;;;;;16.52;15.82;;;;;;;-141.02;58.39;42866.66;5093629;28;20255;-65
2023/10/15 09:02:08;;;;;;;17.15;16.45;;;;;;;-141.02;58.45;42874.34;5093009;28;20217;-70
2023/10/15 09:04:36;;;;;;;16.42;15.73;;;;;;;-141.02;57.89;42887.78;5093107;28;20201;-69
2023/10/15 09:07:04;;;;;;;16.42;15.73;;;;;;;-141.02;57.41;42916.56;5093320;28;20197;-63
2023/10/15 09:09:33;;;;;;;16.52;15.82;;;;;;;-141.02;58.18;42914.66;5093162;28;20193;-63
2023/10/15 09:12:00;;;;;;;16.52;15.82;;;;;;;-141.02;58.14;42943.44;5093124;28;20278;-60
2023/10/15 09:14:42;;;;;;;16.35;15.65;;;;;;;-141.02;59.81;42979.91;5093170;28;20290;-62
2023/10/15 09:17:11;;;;;;;16.40;15.70;;;;;;;-141.02;58.94;42954.97;5092845;28;20194;-62
2023/10/15 09:19:39;;;;;;;15.93;15.32;;;;;;;-141.02;58.07;42939.59;5093132;28;20641;-63
2023/10/15 09:22:06;;;;;;;16.10;15.43;;;;;;;-141.02;57.97;42933.84;5092899;28;20248;-66
2023/10/15 09:24:36;;;;;;;16.10;15.40;;;;;;;-141.02;59.00;42981.84;5093204;28;20220;-67
2023/10/15 09:27:05;;;;;;;16.17;15.48;;;;;;;-141.02;58.75;42981.84;5093055;28;20204;-63
2023/10/15 09:29:32;;;;;;;16.58;15.88;;;;;;;-141.02;57.14;42935.75;5092930;28;20196;-59
2023/10/15 09:32:02;;;;;;;16.02;15.32;;;;;;;-141.02;57.03;42958.81;5092872;28;20197;-68
2023/10/15 09:34:30;;;;;;;16.40;15.70;;;;;;;-141.02;56.76;42962.66;5092774;28;20193;-66
2023/10/15 09:36:58;;;;;;;16.05;15.35;;;;;;;-141.02;57.90;42989.53;5092477;28;20198;-63
2023/10/15 09:39:27;;;;;;;16.35;15.65;;;;;;;-141.02;57.15;42979.91;5092713;28;20190;-67
2023/10/15 09:41:57;;;;;;;16.60;15.90;;;;;;;-141.02;56.57;42958.81;5092310;28;20234;-69
2023/10/15 09:44:25;;;;;;;16.35;15.65;;;;;;;-141.02;56.53;42972.25;5092899;28;20200;-64
2023/10/15 09:46:52;;;;;;;16.27;15.57;;;;;;;-141.02;56.53;42966.47;5092661;28;20197;-66
2023/10/15 09:49:22;;;;;;;16.05;15.35;;;;;;;-141.02;56.95;43016.41;5092290;28;20247;-68
2023/10/15 09:51:50;;;;;;;16.17;15.48;;;;;;;-141.02;55.28;42976.09;5092293;28;20225;-67
2023/10/15 09:54:20;;;;;;;15.88;15.18;;;;;;;-141.02;55.27;42972.25;5092609;28;20648;-66
2023/10/15 09:56:48;;;;;;;15.90;15.20;;;;;;;-141.02;55.93;43001.03;5092193;28;20205;-66
2023/10/15 09:59:17;;;;;;;15.70;15.00;;;;;;;-141.02;55.61;43020.25;5092383;28;20194;-68
2023/10/15 10:01:49;;;;;;;15.75;15.05;;;;;;;-141.02;55.55;43002.97;5092322;28;20614;-67
2023/10/15 10:04:39;;;;;;;15.63;15.02;;;;;;;-141.02;56.49;43006.81;5092111;28;20651;-66
2023/10/15 10:07:38;;;;;;;15.55;14.95;;;;;;;-141.02;56.38;43008.72;5092102;28;20567;-68
2023/10/15 10:10:26;;;;;;;16.13;15.43;;;;;;;-141.02;54.53;42997.19;5092220;28;20634;-66
2023/10/15 10:13:21;;;;;;;15.80;15.20;;;;;;;-141.02;54.17;43020.25;5092017;28;20190;-64
2023/10/15 10:15:54;;;;;;;16.30;15.60;;;;;;;-141.02;55.25;43026.00;5092017;28;20636;-69
2023/10/15 10:18:22;;;;;;;16.25;15.55;;;;;;;-141.02;56.28;43037.50;5091944;28;20670;-64
2023/10/15 10:20:49;;;;;;;15.98;15.38;;;;;;;-141.02;54.45;43026.00;5091909;28;20569;-69
2023/10/15 10:23:17;;;;;;;16.60;15.80;;;;;;;-141.02;55.86;42791.78;5092188;28;20317;-63
2023/10/15 10:25:46;;;;;;;16.10;15.50;;;;;;;-141.02;57.21;43110.47;5091936;28;20189;-59
2023/10/15 10:28:14;;;;;;;16.20;15.50;;;;;;;-141.02;56.65;43083.59;5095565;28;20300;-64
2023/10/15 10:30:54;;;;;;;15.77;15.18;;;;;;;-141.02;55.31;43043.28;5096304;28;20285;-67
2023/10/15 10:33:48;;;;;;;15.82;15.20;;;;;;;-141.02;54.60;43054.78;5095916;28;20190;-67
2023/10/15 10:36:17;;;;;;;15.82;15.23;;;;;;;-141.02;54.43;43062.47;5096242;28;20225;-68
2023/10/15 10:38:44;;;;;;;16.42;15.77;;;;;;;-141.02;53.51;43050.97;5096148;28;20190;-67
2023/10/15 10:41:14;;;;;;;15.88;15.27;;;;;;;-141.02;53.77;43058.63;5095729;28;20284;-64
2023/10/15 10:43:42;;;;;;;16.85;16.15;;;;;;;-141.02;54.08;43081.66;5096023;28;20635;-68
2023/10/15 10:46:21;;;;;;;15.45;14.85;;;;;;;-141.02;53.96;43116.22;5096009;28;20197;-65
2023/10/15 10:49:04;;;;;;;16.08;15.43;;;;;;;-141.02;54.87;43129.66;5095980;28;20185;-65
2023/10/15 10:51:33;;;;;;;16.00;15.40;;;;;;;-141.02;54.95;43189.19;5095406;28;20232;-64
2023/10/15 10:54:25;;;;;;;15.88;15.27;;;;;;;-141.02;54.35;43160.38;5095833;28;20201;-61
2023/10/15 10:57:02;;;;;;;15.70;15.10;;;;;;;-141.02;54.39;43173.81;5095478;28;20734;-66
2023/10/15 10:59:30;;;;;;;16.13;15.52;;;;;;;-141.02;54.33;43183.44;5095559;28;20248;-65
2023/10/15 11:02:00;;;;;;;15.95;15.35;;;;;;;-141.02;53.44;43170.00;5095276;28;20600;-64
2023/10/15 11:04:27;;;;;;;16.30;15.60;;;;;;;-141.02;53.42;43170.00;5095726;28;20197;-61
2023/10/15 11:06:54;;;;;;;16.38;15.68;;;;;;;-141.02;53.63;43181.50;5095624;28;20204;-66
2023/10/15 11:09:22;;;;;;;16.38;15.68;;;;;;;-141.02;52.85;43187.28;5095270;28;20597;-62
2023/10/15 11:11:50;;;;;;;16.77;16.08;;;;;;;-141.02;53.50;43185.34;5095527;28;20288;-62
2023/10/15 11:14:18;;;;;;;16.92;16.23;;;;;;;-141.02;53.47;43235.28;5095141;28;20226;-66
2023/10/15 11:16:46;;;;;;;16.60;15.90;;;;;;;-141.02;53.40;43185.34;5095128;28;20201;-65
2023/10/15 11:19:18;;;;;;;16.05;15.45;;;;;;;-141.02;53.46;43208.38;5095277;28;20739;-65
2023/10/15 11:21:46;;;;;;;16.15;15.55;;;;;;;-141.02;53.29;43223.75;5095327;28;20257;-65
2023/10/15 11:24:14;;;;;;;16.17;15.57;;;;;;;-141.02;52.73;43250.63;5094548;28;20244;-66
2023/10/15 11:26:42;;;;;;;16.35;15.75;;;;;;;-141.02;52.94;43216.06;5074647;28;20245;-66
2023/10/15 11:29:10;;;;;;;16.42;15.82;;;;;;;-141.02;52.35;43227.59;5074922;28;20195;-66
2023/10/15 11:31:38;;;;;;;16.23;15.63;;;;;;;-141.02;52.73;43246.78;5074889;28;20203;-63
2023/10/15 11:34:07;;;;;;;16.38;15.77;;;;;;;-141.02;52.51;43246.78;5074668;28;20289;-63
2023/10/15 11:36:37;;;;;;;16.05;15.45;;;;;;;-141.02;52.94;43229.50;5074596;28;20203;-66
2023/10/15 11:39:09;;;;;;;16.15;15.55;;;;;;;-141.02;52.74;43262.16;5073312;28;20186;-65
2023/10/15 11:41:38;;;;;;;15.73;15.13;;;;;;;-141.02;52.34;43250.63;5074713;28;20197;-67
2023/10/15 11:44:08;;;;;;;16.23;15.63;;;;;;;-141.02;53.20;43277.50;5074725;28;20199;-67
2023/10/15 11:46:36;;;;;;;16.20;15.55;;;;;;;-141.02;52.88;43273.66;5074611;28;20194;-63